sensor_id;sensor_type;location;lat;lon;timestamp;temperature;humidity
16114;DHT22;8161;-33.910;151.156;2022-09-09T00:04:11;16.40;99.90
16114;DHT22;8161;-33.910;151.156;2022-09-09T00:06:50;16.50;99.90
16114;DHT22;8161;-33.910;151.156;2022-09-09T00:09:24;16.50;99.90
16114;DHT22;8161;-33.910;151.156;2022-09-09T00:12:10;16.40;99.90
16114;DHT22;8161;-33.910;151.156;2022-09-09T00:17:56;16.50;99.90
16114;DHT22;8161;-33.910;151.156;2022-09-09T00:23:33;16.60;99.90
16114;DHT22;8161;-33.910;151.156;2022-09-09T00:31:35;16.70;99.90
16114;DHT22;8161;-33.910;151.156;2022-09-09T00:34:18;16.70;99.90
16114;DHT22;8161;-33.910;151.156;2022-09-09T00:36:49;16.70;99.90
16114;DHT22;8161;-33.910;151.156;2022-09-09T00:39:40;16.70;99.90
16114;DHT22;8161;-33.910;151.156;2022-09-09T00:42:22;16.70;99.90
16114;DHT22;8161;-33.910;151.156;2022-09-09T00:45:18;16.80;99.90
16114;DHT22;8161;-33.910;151.156;2022-09-09T00:47:54;17.00;99.90
16114;DHT22;8161;-33.910;151.156;2022-09-09T00:50:35;17.10;99.90
16114;DHT22;8161;-33.910;151.156;2022-09-09T00:56:13;17.30;99.90
16114;DHT22;8161;-33.910;151.156;2022-09-09T00:58:46;17.20;99.90
16114;DHT22;8161;-33.910;151.156;2022-09-09T01:01:17;17.20;99.90
16114;DHT22;8161;-33.910;151.156;2022-09-09T01:03:52;17.20;99.90
16114;DHT22;8161;-33.910;151.156;2022-09-09T01:06:35;17.20;99.90
16114;DHT22;8161;-33.910;151.156;2022-09-09T01:17:17;17.40;99.90
16114;DHT22;8161;-33.910;151.156;2022-09-09T01:22:40;17.40;99.90
16114;DHT22;8161;-33.910;151.156;2022-09-09T01:25:19;17.60;99.90
16114;DHT22;8161;-33.910;151.156;2022-09-09T01:27:49;17.60;99.90
16114;DHT22;8161;-33.910;151.156;2022-09-09T01:30:18;17.80;99.90
16114;DHT22;8161;-33.910;151.156;2022-09-09T01:32:52;17.90;99.90
16114;DHT22;8161;-33.910;151.156;2022-09-09T01:35:55;18.00;99.90
16114;DHT22;8161;-33.910;151.156;2022-09-09T01:38:25;18.10;99.90
16114;DHT22;8161;-33.910;151.156;2022-09-09T01:40:53;18.10;99.90
16114;DHT22;8161;-33.910;151.156;2022-09-09T01:43:21;18.10;99.90
16114;DHT22;8161;-33.910;151.156;2022-09-09T01:45:52;18.20;99.90
16114;DHT22;8161;-33.910;151.156;2022-09-09T01:48:22;18.10;99.90
16114;DHT22;8161;-33.910;151.156;2022-09-09T01:50:51;18.00;99.90
16114;DHT22;8161;-33.910;151.156;2022-09-09T01:53:20;18.00;99.90
16114;DHT22;8161;-33.910;151.156;2022-09-09T01:56:22;18.00;99.90
16114;DHT22;8161;-33.910;151.156;2022-09-09T02:07:51;18.20;99.90
16114;DHT22;8161;-33.910;151.156;2022-09-09T02:10:25;18.30;99.90
16114;DHT22;8161;-33.910;151.156;2022-09-09T02:13:10;18.60;99.90
16114;DHT22;8161;-33.910;151.156;2022-09-09T02:21:04;19.70;99.90
16114;DHT22;8161;-33.910;151.156;2022-09-09T02:23:34;20.00;99.90
16114;DHT22;8161;-33.910;151.156;2022-09-09T02:26:04;20.20;99.90
16114;DHT22;8161;-33.910;151.156;2022-09-09T02:28:32;20.40;99.90
16114;DHT22;8161;-33.910;151.156;2022-09-09T02:31:02;20.50;99.90
16114;DHT22;8161;-33.910;151.156;2022-09-09T02:33:35;21.60;99.90
16114;DHT22;8161;-33.910;151.156;2022-09-09T02:36:04;20.60;99.90
16114;DHT22;8161;-33.910;151.156;2022-09-09T02:38:37;20.70;99.90
16114;DHT22;8161;-33.910;151.156;2022-09-09T02:41:06;20.90;99.90
16114;DHT22;8161;-33.910;151.156;2022-09-09T02:43:35;20.90;99.90
16114;DHT22;8161;-33.910;151.156;2022-09-09T02:49:10;20.70;99.90
16114;DHT22;8161;-33.910;151.156;2022-09-09T02:52:02;20.50;99.90
16114;DHT22;8161;-33.910;151.156;2022-09-09T02:54:35;20.50;99.90
16114;DHT22;8161;-33.910;151.156;2022-09-09T02:57:33;20.50;99.90
16114;DHT22;8161;-33.910;151.156;2022-09-09T03:00:00;20.60;99.90
16114;DHT22;8161;-33.910;151.156;2022-09-09T03:02:29;20.50;99.90
16114;DHT22;8161;-33.910;151.156;2022-09-09T03:04:56;20.60;99.90
16114;DHT22;8161;-33.910;151.156;2022-09-09T03:07:24;20.50;99.90
16114;DHT22;8161;-33.910;151.156;2022-09-09T03:09:53;20.40;99.90
16114;DHT22;8161;-33.910;151.156;2022-09-09T03:12:21;20.50;99.90
16114;DHT22;8161;-33.910;151.156;2022-09-09T03:14:48;20.60;99.90
16114;DHT22;8161;-33.910;151.156;2022-09-09T03:17:16;20.70;99.90
16114;DHT22;8161;-33.910;151.156;2022-09-09T03:19:43;20.80;99.90
16114;DHT22;8161;-33.910;151.156;2022-09-09T03:22:12;20.80;99.90
16114;DHT22;8161;-33.910;151.156;2022-09-09T03:24:39;20.90;99.90
16114;DHT22;8161;-33.910;151.156;2022-09-09T03:27:07;20.90;99.90
16114;DHT22;8161;-33.910;151.156;2022-09-09T03:29:34;20.90;99.90
16114;DHT22;8161;-33.910;151.156;2022-09-09T03:32:01;20.70;99.90
16114;DHT22;8161;-33.910;151.156;2022-09-09T03:34:29;20.80;99.90
16114;DHT22;8161;-33.910;151.156;2022-09-09T03:36:56;20.90;99.90
16114;DHT22;8161;-33.910;151.156;2022-09-09T03:39:24;21.00;99.90
16114;DHT22;8161;-33.910;151.156;2022-09-09T03:41:51;20.90;99.90
16114;DHT22;8161;-33.910;151.156;2022-09-09T03:44:18;20.90;99.90
16114;DHT22;8161;-33.910;151.156;2022-09-09T03:46:45;21.00;99.90
16114;DHT22;8161;-33.910;151.156;2022-09-09T03:49:13;20.90;99.90
16114;DHT22;8161;-33.910;151.156;2022-09-09T03:51:41;20.90;99.90
16114;DHT22;8161;-33.910;151.156;2022-09-09T03:54:09;20.90;99.90
16114;DHT22;8161;-33.910;151.156;2022-09-09T03:56:37;21.00;99.90
16114;DHT22;8161;-33.910;151.156;2022-09-09T03:59:06;20.90;99.90
16114;DHT22;8161;-33.910;151.156;2022-09-09T04:01:35;21.00;99.90
16114;DHT22;8161;-33.910;151.156;2022-09-09T04:04:03;21.00;99.90
16114;DHT22;8161;-33.910;151.156;2022-09-09T04:06:30;21.10;99.90
16114;DHT22;8161;-33.910;151.156;2022-09-09T04:08:58;21.20;99.90
16114;DHT22;8161;-33.910;151.156;2022-09-09T04:11:25;21.20;99.90
16114;DHT22;8161;-33.910;151.156;2022-09-09T04:13:53;21.20;99.90
16114;DHT22;8161;-33.910;151.156;2022-09-09T04:16:20;21.40;99.90
16114;DHT22;8161;-33.910;151.156;2022-09-09T04:18:48;21.70;99.90
16114;DHT22;8161;-33.910;151.156;2022-09-09T04:21:15;21.90;99.90
16114;DHT22;8161;-33.910;151.156;2022-09-09T04:23:47;22.10;99.90
16114;DHT22;8161;-33.910;151.156;2022-09-09T04:26:14;22.30;99.90
16114;DHT22;8161;-33.910;151.156;2022-09-09T04:28:41;22.40;99.90
16114;DHT22;8161;-33.910;151.156;2022-09-09T04:31:14;22.30;99.90
16114;DHT22;8161;-33.910;151.156;2022-09-09T04:33:41;22.40;99.90
16114;DHT22;8161;-33.910;151.156;2022-09-09T04:36:09;22.70;99.90
16114;DHT22;8161;-33.910;151.156;2022-09-09T04:38:36;22.90;99.90
16114;DHT22;8161;-33.910;151.156;2022-09-09T04:41:04;22.90;99.90
16114;DHT22;8161;-33.910;151.156;2022-09-09T04:43:31;22.90;99.90
16114;DHT22;8161;-33.910;151.156;2022-09-09T04:45:59;22.90;99.90
16114;DHT22;8161;-33.910;151.156;2022-09-09T04:48:26;23.20;99.90
16114;DHT22;8161;-33.910;151.156;2022-09-09T04:50:58;23.30;99.90
16114;DHT22;8161;-33.910;151.156;2022-09-09T04:53:26;23.20;99.90
16114;DHT22;8161;-33.910;151.156;2022-09-09T04:56:02;23.30;99.90
16114;DHT22;8161;-33.910;151.156;2022-09-09T04:58:29;23.50;99.90
16114;DHT22;8161;-33.910;151.156;2022-09-09T05:01:08;23.60;99.90
16114;DHT22;8161;-33.910;151.156;2022-09-09T05:03:35;23.70;99.90
16114;DHT22;8161;-33.910;151.156;2022-09-09T05:06:23;23.80;99.90
16114;DHT22;8161;-33.910;151.156;2022-09-09T05:08:51;23.90;99.90
16114;DHT22;8161;-33.910;151.156;2022-09-09T05:11:26;24.00;99.90
16114;DHT22;8161;-33.910;151.156;2022-09-09T05:13:54;24.10;99.90
16114;DHT22;8161;-33.910;151.156;2022-09-09T05:16:22;24.30;99.90
16114;DHT22;8161;-33.910;151.156;2022-09-09T05:18:51;24.10;99.90
16114;DHT22;8161;-33.910;151.156;2022-09-09T05:21:19;23.80;99.90
16114;DHT22;8161;-33.910;151.156;2022-09-09T05:23:47;23.60;99.90
16114;DHT22;8161;-33.910;151.156;2022-09-09T05:26:20;23.30;99.90
16114;DHT22;8161;-33.910;151.156;2022-09-09T05:28:48;23.20;99.90
16114;DHT22;8161;-33.910;151.156;2022-09-09T05:31:17;23.00;99.90
16114;DHT22;8161;-33.910;151.156;2022-09-09T05:33:46;22.80;99.90
16114;DHT22;8161;-33.910;151.156;2022-09-09T05:36:17;22.60;99.90
16114;DHT22;8161;-33.910;151.156;2022-09-09T05:38:45;22.40;99.90
16114;DHT22;8161;-33.910;151.156;2022-09-09T05:41:13;22.30;99.90
16114;DHT22;8161;-33.910;151.156;2022-09-09T05:43:44;22.10;99.90
16114;DHT22;8161;-33.910;151.156;2022-09-09T05:46:16;22.00;99.90
16114;DHT22;8161;-33.910;151.156;2022-09-09T05:48:45;21.80;99.90
16114;DHT22;8161;-33.910;151.156;2022-09-09T05:51:19;21.70;99.90
16114;DHT22;8161;-33.910;151.156;2022-09-09T05:53:48;21.60;99.90
16114;DHT22;8161;-33.910;151.156;2022-09-09T05:56:18;21.40;99.90
16114;DHT22;8161;-33.910;151.156;2022-09-09T05:58:46;21.30;99.90
16114;DHT22;8161;-33.910;151.156;2022-09-09T06:01:17;21.30;99.90
16114;DHT22;8161;-33.910;151.156;2022-09-09T06:03:46;21.20;99.90
16114;DHT22;8161;-33.910;151.156;2022-09-09T06:06:15;21.00;99.90
16114;DHT22;8161;-33.910;151.156;2022-09-09T06:08:54;20.80;99.90
16114;DHT22;8161;-33.910;151.156;2022-09-09T06:11:33;20.50;99.90
16114;DHT22;8161;-33.910;151.156;2022-09-09T06:14:03;20.40;99.90
16114;DHT22;8161;-33.910;151.156;2022-09-09T06:16:31;20.60;99.90
16114;DHT22;8161;-33.910;151.156;2022-09-09T06:19:04;20.90;99.90
16114;DHT22;8161;-33.910;151.156;2022-09-09T06:21:36;21.10;99.90
16114;DHT22;8161;-33.910;151.156;2022-09-09T06:24:07;21.60;99.90
16114;DHT22;8161;-33.910;151.156;2022-09-09T06:26:37;22.10;99.90
16114;DHT22;8161;-33.910;151.156;2022-09-09T06:29:07;22.30;99.90
16114;DHT22;8161;-33.910;151.156;2022-09-09T06:31:36;22.40;99.90
16114;DHT22;8161;-33.910;151.156;2022-09-09T06:34:07;22.20;99.90
16114;DHT22;8161;-33.910;151.156;2022-09-09T06:36:37;22.00;99.90
16114;DHT22;8161;-33.910;151.156;2022-09-09T06:39:05;21.80;99.90
16114;DHT22;8161;-33.910;151.156;2022-09-09T06:41:33;21.60;99.90
16114;DHT22;8161;-33.910;151.156;2022-09-09T06:44:01;21.70;99.90
16114;DHT22;8161;-33.910;151.156;2022-09-09T06:46:31;22.00;99.90
16114;DHT22;8161;-33.910;151.156;2022-09-09T06:49:00;22.20;99.90
16114;DHT22;8161;-33.910;151.156;2022-09-09T06:51:33;22.40;99.90
16114;DHT22;8161;-33.910;151.156;2022-09-09T06:54:02;22.60;99.90
16114;DHT22;8161;-33.910;151.156;2022-09-09T06:56:32;22.60;99.90
16114;DHT22;8161;-33.910;151.156;2022-09-09T06:59:01;22.40;99.90
16114;DHT22;8161;-33.910;151.156;2022-09-09T07:01:32;22.20;99.90
16114;DHT22;8161;-33.910;151.156;2022-09-09T07:03:59;22.00;99.90
16114;DHT22;8161;-33.910;151.156;2022-09-09T07:06:29;21.80;99.90
16114;DHT22;8161;-33.910;151.156;2022-09-09T07:09:00;21.60;99.90
16114;DHT22;8161;-33.910;151.156;2022-09-09T07:11:32;21.40;99.90
16114;DHT22;8161;-33.910;151.156;2022-09-09T07:14:00;21.20;99.90
16114;DHT22;8161;-33.910;151.156;2022-09-09T07:16:28;21.00;99.90
16114;DHT22;8161;-33.910;151.156;2022-09-09T07:18:57;20.90;99.90
16114;DHT22;8161;-33.910;151.156;2022-09-09T07:21:27;20.70;99.90
16114;DHT22;8161;-33.910;151.156;2022-09-09T07:23:54;20.60;99.90
16114;DHT22;8161;-33.910;151.156;2022-09-09T07:26:25;20.50;99.90
16114;DHT22;8161;-33.910;151.156;2022-09-09T07:28:54;20.40;99.90
16114;DHT22;8161;-33.910;151.156;2022-09-09T07:31:30;20.30;99.90
16114;DHT22;8161;-33.910;151.156;2022-09-09T07:33:59;20.20;99.90
16114;DHT22;8161;-33.910;151.156;2022-09-09T07:36:31;20.10;99.90
16114;DHT22;8161;-33.910;151.156;2022-09-09T07:39:02;20.00;99.90
16114;DHT22;8161;-33.910;151.156;2022-09-09T07:41:36;20.00;99.90
16114;DHT22;8161;-33.910;151.156;2022-09-09T07:44:07;19.80;99.90
16114;DHT22;8161;-33.910;151.156;2022-09-09T07:46:35;19.80;99.90
16114;DHT22;8161;-33.910;151.156;2022-09-09T07:49:04;19.70;99.90
16114;DHT22;8161;-33.910;151.156;2022-09-09T07:51:35;19.70;99.90
16114;DHT22;8161;-33.910;151.156;2022-09-09T07:54:06;19.60;99.90
16114;DHT22;8161;-33.910;151.156;2022-09-09T07:56:34;19.60;99.90
16114;DHT22;8161;-33.910;151.156;2022-09-09T07:59:02;19.50;99.90
16114;DHT22;8161;-33.910;151.156;2022-09-09T08:01:35;19.40;99.90
16114;DHT22;8161;-33.910;151.156;2022-09-09T08:04:08;19.40;99.90
16114;DHT22;8161;-33.910;151.156;2022-09-09T08:06:40;19.30;99.90
16114;DHT22;8161;-33.910;151.156;2022-09-09T08:09:09;19.30;99.90
16114;DHT22;8161;-33.910;151.156;2022-09-09T08:11:38;19.20;99.90
16114;DHT22;8161;-33.910;151.156;2022-09-09T08:14:06;19.20;99.90
16114;DHT22;8161;-33.910;151.156;2022-09-09T08:16:37;19.10;99.90
16114;DHT22;8161;-33.910;151.156;2022-09-09T08:19:05;19.00;99.90
16114;DHT22;8161;-33.910;151.156;2022-09-09T08:21:35;19.00;99.90
16114;DHT22;8161;-33.910;151.156;2022-09-09T08:24:04;18.90;99.90
16114;DHT22;8161;-33.910;151.156;2022-09-09T08:26:34;18.90;99.90
16114;DHT22;8161;-33.910;151.156;2022-09-09T08:29:04;18.90;99.90
16114;DHT22;8161;-33.910;151.156;2022-09-09T08:31:38;18.80;99.90
16114;DHT22;8161;-33.910;151.156;2022-09-09T08:34:06;18.80;99.90
16114;DHT22;8161;-33.910;151.156;2022-09-09T08:36:39;18.80;99.90
16114;DHT22;8161;-33.910;151.156;2022-09-09T08:39:09;18.80;99.90
16114;DHT22;8161;-33.910;151.156;2022-09-09T08:45:19;18.70;99.90
16114;DHT22;8161;-33.910;151.156;2022-09-09T08:50:26;18.70;99.90
16114;DHT22;8161;-33.910;151.156;2022-09-09T08:55:52;18.50;99.90
16114;DHT22;8161;-33.910;151.156;2022-09-09T08:58:30;18.40;99.90
16114;DHT22;8161;-33.910;151.156;2022-09-09T09:09:28;18.10;99.90
16114;DHT22;8161;-33.910;151.156;2022-09-09T09:12:00;18.00;99.90
16114;DHT22;8161;-33.910;151.156;2022-09-09T09:14:30;18.00;99.90
16114;DHT22;8161;-33.910;151.156;2022-09-09T09:17:14;18.10;99.90
16114;DHT22;8161;-33.910;151.156;2022-09-09T09:19:43;18.10;99.90
16114;DHT22;8161;-33.910;151.156;2022-09-09T09:28:02;17.80;99.90
16114;DHT22;8161;-33.910;151.156;2022-09-09T09:30:53;17.70;99.90
16114;DHT22;8161;-33.910;151.156;2022-09-09T09:36:10;17.50;99.90
16114;DHT22;8161;-33.910;151.156;2022-09-09T09:38:56;17.50;99.90
16114;DHT22;8161;-33.910;151.156;2022-09-09T09:41:52;17.50;99.90
16114;DHT22;8161;-33.910;151.156;2022-09-09T09:46:48;17.50;99.90
16114;DHT22;8161;-33.910;151.156;2022-09-09T09:49:15;17.50;99.90
16114;DHT22;8161;-33.910;151.156;2022-09-09T09:51:44;17.50;99.90
16114;DHT22;8161;-33.910;151.156;2022-09-09T09:54:47;17.50;99.90
16114;DHT22;8161;-33.910;151.156;2022-09-09T09:57:13;17.40;99.90
16114;DHT22;8161;-33.910;151.156;2022-09-09T09:59:42;17.40;99.90
16114;DHT22;8161;-33.910;151.156;2022-09-09T10:02:21;17.40;99.90
16114;DHT22;8161;-33.910;151.156;2022-09-09T10:05:12;17.40;99.90
16114;DHT22;8161;-33.910;151.156;2022-09-09T10:07:40;17.40;99.90
16114;DHT22;8161;-33.910;151.156;2022-09-09T10:10:20;17.40;99.90
16114;DHT22;8161;-33.910;151.156;2022-09-09T10:18:41;17.30;99.90
16114;DHT22;8161;-33.910;151.156;2022-09-09T10:21:20;17.30;99.90
16114;DHT22;8161;-33.910;151.156;2022-09-09T10:32:37;17.20;99.90
16114;DHT22;8161;-33.910;151.156;2022-09-09T10:38:16;17.10;99.90
16114;DHT22;8161;-33.910;151.156;2022-09-09T10:57:51;16.90;99.90
16114;DHT22;8161;-33.910;151.156;2022-09-09T11:00:46;16.90;99.90
16114;DHT22;8161;-33.910;151.156;2022-09-09T11:03:27;16.90;99.90
16114;DHT22;8161;-33.910;151.156;2022-09-09T11:06:06;16.90;99.90
16114;DHT22;8161;-33.910;151.156;2022-09-09T11:08:38;16.90;99.90
16114;DHT22;8161;-33.910;151.156;2022-09-09T11:12:04;16.90;99.90
16114;DHT22;8161;-33.910;151.156;2022-09-09T11:14:19;16.90;99.90
16114;DHT22;8161;-33.910;151.156;2022-09-09T11:16:56;16.90;99.90
16114;DHT22;8161;-33.910;151.156;2022-09-09T11:22:00;16.90;99.90
16114;DHT22;8161;-33.910;151.156;2022-09-09T11:24:45;16.90;99.90
16114;DHT22;8161;-33.910;151.156;2022-09-09T11:27:28;16.90;99.90
16114;DHT22;8161;-33.910;151.156;2022-09-09T11:38:06;16.80;99.90
16114;DHT22;8161;-33.910;151.156;2022-09-09T11:40:36;16.80;99.90
16114;DHT22;8161;-33.910;151.156;2022-09-09T11:45:59;16.80;99.90
16114;DHT22;8161;-33.910;151.156;2022-09-09T11:48:38;16.80;99.90
16114;DHT22;8161;-33.910;151.156;2022-09-09T11:51:11;16.90;99.90
16114;DHT22;8161;-33.910;151.156;2022-09-09T11:53:53;16.90;99.90
16114;DHT22;8161;-33.910;151.156;2022-09-09T11:56:27;16.90;99.90
16114;DHT22;8161;-33.910;151.156;2022-09-09T11:58:59;16.90;99.90
16114;DHT22;8161;-33.910;151.156;2022-09-09T12:01:38;16.90;99.90
16114;DHT22;8161;-33.910;151.156;2022-09-09T12:04:17;17.00;99.90
16114;DHT22;8161;-33.910;151.156;2022-09-09T12:07:00;16.90;99.90
16114;DHT22;8161;-33.910;151.156;2022-09-09T12:14:56;17.00;99.90
16114;DHT22;8161;-33.910;151.156;2022-09-09T12:17:25;16.90;99.90
16114;DHT22;8161;-33.910;151.156;2022-09-09T12:28:37;17.10;99.90
16114;DHT22;8161;-33.910;151.156;2022-09-09T12:33:51;17.10;99.90
16114;DHT22;8161;-33.910;151.156;2022-09-09T12:36:19;17.20;99.90
16114;DHT22;8161;-33.910;151.156;2022-09-09T12:38:48;17.20;99.90
16114;DHT22;8161;-33.910;151.156;2022-09-09T12:41:23;17.20;99.90
16114;DHT22;8161;-33.910;151.156;2022-09-09T12:43:51;17.10;99.90
16114;DHT22;8161;-33.910;151.156;2022-09-09T12:46:36;17.10;99.90
16114;DHT22;8161;-33.910;151.156;2022-09-09T12:49:05;17.10;99.90
16114;DHT22;8161;-33.910;151.156;2022-09-09T12:51:33;17.00;99.90
16114;DHT22;8161;-33.910;151.156;2022-09-09T12:54:01;17.00;99.90
16114;DHT22;8161;-33.910;151.156;2022-09-09T12:56:30;17.00;99.90
16114;DHT22;8161;-33.910;151.156;2022-09-09T12:58:59;17.00;99.90
16114;DHT22;8161;-33.910;151.156;2022-09-09T13:01:32;17.00;99.90
16114;DHT22;8161;-33.910;151.156;2022-09-09T13:04:02;17.00;99.90
16114;DHT22;8161;-33.910;151.156;2022-09-09T13:06:32;17.00;99.90
16114;DHT22;8161;-33.910;151.156;2022-09-09T13:09:01;17.00;99.90
16114;DHT22;8161;-33.910;151.156;2022-09-09T13:11:42;17.10;99.90
16114;DHT22;8161;-33.910;151.156;2022-09-09T13:14:21;17.10;99.90
16114;DHT22;8161;-33.910;151.156;2022-09-09T13:16:56;17.10;99.90
16114;DHT22;8161;-33.910;151.156;2022-09-09T13:19:25;17.10;99.90
16114;DHT22;8161;-33.910;151.156;2022-09-09T13:21:56;17.10;99.90
16114;DHT22;8161;-33.910;151.156;2022-09-09T13:24:32;17.00;99.90
16114;DHT22;8161;-33.910;151.156;2022-09-09T13:27:03;17.10;99.90
16114;DHT22;8161;-33.910;151.156;2022-09-09T13:29:32;17.00;99.90
16114;DHT22;8161;-33.910;151.156;2022-09-09T13:32:26;17.00;99.90
16114;DHT22;8161;-33.910;151.156;2022-09-09T13:35:00;16.90;99.90
16114;DHT22;8161;-33.910;151.156;2022-09-09T13:37:39;16.90;99.90
16114;DHT22;8161;-33.910;151.156;2022-09-09T13:40:21;16.90;99.90
16114;DHT22;8161;-33.910;151.156;2022-09-09T13:42:56;16.90;99.90
16114;DHT22;8161;-33.910;151.156;2022-09-09T13:45:25;16.80;99.90
16114;DHT22;8161;-33.910;151.156;2022-09-09T13:47:56;16.80;99.90
16114;DHT22;8161;-33.910;151.156;2022-09-09T13:50:26;16.80;99.90
16114;DHT22;8161;-33.910;151.156;2022-09-09T13:52:58;16.80;99.90
16114;DHT22;8161;-33.910;151.156;2022-09-09T13:55:29;16.80;99.90
16114;DHT22;8161;-33.910;151.156;2022-09-09T13:58:01;16.80;99.90
16114;DHT22;8161;-33.910;151.156;2022-09-09T14:00:33;16.80;99.90
16114;DHT22;8161;-33.910;151.156;2022-09-09T14:03:01;16.80;99.90
16114;DHT22;8161;-33.910;151.156;2022-09-09T14:05:29;16.80;99.90
16114;DHT22;8161;-33.910;151.156;2022-09-09T14:07:58;16.70;99.90
16114;DHT22;8161;-33.910;151.156;2022-09-09T14:10:27;16.70;99.90
16114;DHT22;8161;-33.910;151.156;2022-09-09T14:12:54;16.60;99.90
16114;DHT22;8161;-33.910;151.156;2022-09-09T14:15:22;16.60;99.90
16114;DHT22;8161;-33.910;151.156;2022-09-09T14:17:49;16.60;99.90
16114;DHT22;8161;-33.910;151.156;2022-09-09T14:20:18;16.60;99.90
16114;DHT22;8161;-33.910;151.156;2022-09-09T14:22:45;16.60;99.90
16114;DHT22;8161;-33.910;151.156;2022-09-09T14:25:14;16.60;99.90
16114;DHT22;8161;-33.910;151.156;2022-09-09T14:27:41;16.50;99.90
16114;DHT22;8161;-33.910;151.156;2022-09-09T14:30:09;16.50;99.90
16114;DHT22;8161;-33.910;151.156;2022-09-09T14:32:37;16.40;99.90
16114;DHT22;8161;-33.910;151.156;2022-09-09T14:35:04;16.40;99.90
16114;DHT22;8161;-33.910;151.156;2022-09-09T14:37:31;16.40;99.90
16114;DHT22;8161;-33.910;151.156;2022-09-09T14:39:59;16.40;99.90
16114;DHT22;8161;-33.910;151.156;2022-09-09T14:42:26;16.40;99.90
16114;DHT22;8161;-33.910;151.156;2022-09-09T14:44:54;16.40;99.90
16114;DHT22;8161;-33.910;151.156;2022-09-09T14:47:21;16.40;99.90
16114;DHT22;8161;-33.910;151.156;2022-09-09T14:49:49;16.40;99.90
16114;DHT22;8161;-33.910;151.156;2022-09-09T14:52:16;16.40;99.90
16114;DHT22;8161;-33.910;151.156;2022-09-09T14:54:44;16.40;99.90
16114;DHT22;8161;-33.910;151.156;2022-09-09T14:57:11;16.40;99.90
16114;DHT22;8161;-33.910;151.156;2022-09-09T14:59:38;16.40;99.90
16114;DHT22;8161;-33.910;151.156;2022-09-09T15:02:07;16.30;99.90
16114;DHT22;8161;-33.910;151.156;2022-09-09T15:04:34;16.30;99.90
16114;DHT22;8161;-33.910;151.156;2022-09-09T15:07:02;16.30;99.90
16114;DHT22;8161;-33.910;151.156;2022-09-09T15:09:29;16.20;99.90
16114;DHT22;8161;-33.910;151.156;2022-09-09T15:11:56;16.20;99.90
16114;DHT22;8161;-33.910;151.156;2022-09-09T15:14:23;16.20;99.90
16114;DHT22;8161;-33.910;151.156;2022-09-09T15:16:52;16.20;99.90
16114;DHT22;8161;-33.910;151.156;2022-09-09T15:19:20;16.20;99.90
16114;DHT22;8161;-33.910;151.156;2022-09-09T15:21:47;16.10;99.90
16114;DHT22;8161;-33.910;151.156;2022-09-09T15:24:15;16.10;99.90
16114;DHT22;8161;-33.910;151.156;2022-09-09T15:26:44;16.10;99.90
16114;DHT22;8161;-33.910;151.156;2022-09-09T15:29:11;16.10;99.90
16114;DHT22;8161;-33.910;151.156;2022-09-09T15:31:39;16.00;99.90
16114;DHT22;8161;-33.910;151.156;2022-09-09T15:34:07;16.00;99.90
16114;DHT22;8161;-33.910;151.156;2022-09-09T15:36:38;16.00;99.90
16114;DHT22;8161;-33.910;151.156;2022-09-09T15:39:08;16.00;99.90
16114;DHT22;8161;-33.910;151.156;2022-09-09T15:41:39;15.90;99.90
16114;DHT22;8161;-33.910;151.156;2022-09-09T15:44:06;15.90;99.90
16114;DHT22;8161;-33.910;151.156;2022-09-09T15:46:39;15.80;99.90
16114;DHT22;8161;-33.910;151.156;2022-09-09T15:49:21;15.90;99.90
16114;DHT22;8161;-33.910;151.156;2022-09-09T15:54:21;15.90;99.90
16114;DHT22;8161;-33.910;151.156;2022-09-09T15:56:59;15.90;99.90
16114;DHT22;8161;-33.910;151.156;2022-09-09T15:59:28;15.90;99.90
16114;DHT22;8161;-33.910;151.156;2022-09-09T16:01:56;15.90;99.90
16114;DHT22;8161;-33.910;151.156;2022-09-09T16:04:28;15.90;99.90
16114;DHT22;8161;-33.910;151.156;2022-09-09T16:06:58;15.90;99.90
16114;DHT22;8161;-33.910;151.156;2022-09-09T16:09:27;15.80;99.90
16114;DHT22;8161;-33.910;151.156;2022-09-09T16:11:59;15.90;99.90
16114;DHT22;8161;-33.910;151.156;2022-09-09T16:14:32;15.80;99.90
16114;DHT22;8161;-33.910;151.156;2022-09-09T16:17:05;15.70;99.90
16114;DHT22;8161;-33.910;151.156;2022-09-09T16:19:33;15.60;99.90
16114;DHT22;8161;-33.910;151.156;2022-09-09T16:22:01;15.60;99.90
16114;DHT22;8161;-33.910;151.156;2022-09-09T16:24:29;15.60;99.90
16114;DHT22;8161;-33.910;151.156;2022-09-09T16:26:56;15.60;99.90
16114;DHT22;8161;-33.910;151.156;2022-09-09T16:29:23;15.60;99.90
16114;DHT22;8161;-33.910;151.156;2022-09-09T16:31:54;15.50;99.90
16114;DHT22;8161;-33.910;151.156;2022-09-09T16:34:21;15.50;99.90
16114;DHT22;8161;-33.910;151.156;2022-09-09T16:36:49;15.40;99.90
16114;DHT22;8161;-33.910;151.156;2022-09-09T16:39:18;15.50;99.90
16114;DHT22;8161;-33.910;151.156;2022-09-09T16:41:47;15.40;99.90
16114;DHT22;8161;-33.910;151.156;2022-09-09T16:44:16;15.40;99.90
16114;DHT22;8161;-33.910;151.156;2022-09-09T16:46:46;15.30;99.90
16114;DHT22;8161;-33.910;151.156;2022-09-09T16:49:15;15.40;99.90
16114;DHT22;8161;-33.910;151.156;2022-09-09T16:51:45;15.40;99.90
16114;DHT22;8161;-33.910;151.156;2022-09-09T16:54:13;15.40;99.90
16114;DHT22;8161;-33.910;151.156;2022-09-09T16:56:44;15.40;99.90
16114;DHT22;8161;-33.910;151.156;2022-09-09T16:59:15;15.40;99.90
16114;DHT22;8161;-33.910;151.156;2022-09-09T17:01:44;15.40;99.90
16114;DHT22;8161;-33.910;151.156;2022-09-09T17:04:18;15.40;99.90
16114;DHT22;8161;-33.910;151.156;2022-09-09T17:06:52;15.40;99.90
16114;DHT22;8161;-33.910;151.156;2022-09-09T17:09:20;15.30;99.90
16114;DHT22;8161;-33.910;151.156;2022-09-09T17:11:49;15.30;99.90
16114;DHT22;8161;-33.910;151.156;2022-09-09T17:14:21;15.30;99.90
16114;DHT22;8161;-33.910;151.156;2022-09-09T17:16:49;15.40;99.90
16114;DHT22;8161;-33.910;151.156;2022-09-09T17:19:17;15.30;99.90
16114;DHT22;8161;-33.910;151.156;2022-09-09T17:21:45;15.30;99.90
16114;DHT22;8161;-33.910;151.156;2022-09-09T17:24:18;15.40;99.90
16114;DHT22;8161;-33.910;151.156;2022-09-09T17:26:47;15.40;99.90
16114;DHT22;8161;-33.910;151.156;2022-09-09T17:29:14;15.40;99.90
16114;DHT22;8161;-33.910;151.156;2022-09-09T17:31:43;15.30;99.90
16114;DHT22;8161;-33.910;151.156;2022-09-09T17:34:10;15.30;99.90
16114;DHT22;8161;-33.910;151.156;2022-09-09T17:36:38;15.30;99.90
16114;DHT22;8161;-33.910;151.156;2022-09-09T17:39:06;15.40;99.90
16114;DHT22;8161;-33.910;151.156;2022-09-09T17:41:36;15.30;99.90
16114;DHT22;8161;-33.910;151.156;2022-09-09T17:44:05;15.30;99.90
16114;DHT22;8161;-33.910;151.156;2022-09-09T17:46:40;15.20;99.90
16114;DHT22;8161;-33.910;151.156;2022-09-09T17:49:10;15.20;99.90
16114;DHT22;8161;-33.910;151.156;2022-09-09T17:51:38;15.20;99.90